Sawyers Bar, California
Current Conditions -  °F | °C
As of 5:10 PM on Sunday 23 Nov 2014 (Local Time) from KO86 Reporting Station
Clear Clear  
Wind Chill: 34°   Ceiling: Unl
Heat Index: 37°   Visibility: 10mi
Dew Point: 36°   Wind: 5mph
Humidity: 93%   Direction: 290°WNW
Pressure: 30.35"   Gusts: NA
Location:  41.4264°N, 123.041°W
Report Text: KO86 240110Z AUTO 29004KT 10SM CLR 03/02 A3035 RMK AO1
Loading
Personal Weather Stations






























Interactive Weather Map New forecast layout! Learn more

10-Day Weather Forecast

Advertisements
Track Severe Weather on mobile